Time;durP1;ratioP1;P1;durP2;ratioP2;P2;SDS_P1;SDS_P2;PMS_P1;PMS_P2;Temp;Humidity;BMP_temperature;BMP_pressure;BME280_temperature;BME280_humidity;BME280_pressure;Samples;Min_cycle;Max_cycle;Signal;HPM_P1;HPM_P2
2022/07/04 00:00:05;;;;;;;0.43;0.43;;;23.80;65.30;;;;;;4049940;29;20080;-63
2022/07/04 00:02:27;;;;;;;0.00;0.00;;;23.70;65.30;;;;;;4064981;29;20048;-64
2022/07/04 00:04:49;;;;;;;0.17;0.17;;;23.70;65.20;;;;;;4064302;29;20063;-64
2022/07/04 00:07:11;;;;;;;0.00;0.00;;;23.70;65.20;;;;;;4064618;29;20055;-64
2022/07/04 00:09:33;;;;;;;0.60;0.60;;;23.70;65.20;;;;;;4064356;29;20480;-64
2022/07/04 00:11:56;;;;;;;0.00;0.00;;;23.70;65.30;;;;;;4064166;29;20064;-65
2022/07/04 00:14:18;;;;;;;0.00;0.00;;;23.70;65.20;;;;;;4062886;29;20044;-64
2022/07/04 00:16:40;;;;;;;0.00;0.00;;;23.70;65.20;;;;;;4064257;29;20527;-65
2022/07/04 00:19:03;;;;;;;0.00;0.00;;;23.70;65.20;;;;;;4064113;29;20064;-64
2022/07/04 00:21:25;;;;;;;0.00;0.00;;;23.60;65.10;;;;;;4063906;29;20064;-64
2022/07/04 00:23:48;;;;;;;0.00;0.00;;;23.60;66.00;;;;;;4063288;29;20151;-64
2022/07/04 00:26:10;;;;;;;0.00;0.00;;;23.60;66.00;;;;;;4050012;29;20052;-64
2022/07/04 00:28:33;;;;;;;0.00;0.00;;;23.60;65.10;;;;;;4063322;29;20052;-64
2022/07/04 00:30:55;;;;;;;0.00;0.00;;;23.60;65.20;;;;;;4064007;29;20052;-60
2022/07/04 00:33:18;;;;;;;0.00;0.00;;;23.60;65.20;;;;;;4048259;29;20055;-60
2022/07/04 00:35:40;;;;;;;0.00;0.00;;;23.60;65.20;;;;;;4049362;29;20052;-60
2022/07/04 00:38:02;;;;;;;0.00;0.00;;;23.60;65.20;;;;;;4049003;29;20048;-61
2022/07/04 00:40:24;;;;;;;0.00;0.00;;;23.60;65.20;;;;;;4049023;29;20063;-60
2022/07/04 00:42:46;;;;;;;0.00;0.00;;;23.60;65.20;;;;;;4060109;29;20552;-61
2022/07/04 00:45:10;;;;;;;0.05;0.05;;;23.60;65.20;;;;;;4063591;29;20508;-60
2022/07/04 00:47:33;;;;;;;0.00;0.00;;;23.60;65.20;;;;;;4062725;29;20086;-61
2022/07/04 00:49:55;;;;;;;0.08;0.08;;;23.60;66.10;;;;;;4063463;29;20407;-60
2022/07/04 00:52:18;;;;;;;0.25;0.25;;;23.60;65.30;;;;;;4063026;29;20056;-60
2022/07/04 00:54:40;;;;;;;0.00;0.00;;;23.50;65.20;;;;;;4063576;29;20052;-60
2022/07/04 00:57:03;;;;;;;0.00;0.00;;;23.50;65.20;;;;;;4063437;29;20099;-60
2022/07/04 00:59:25;;;;;;;0.00;0.00;;;23.50;65.20;;;;;;4063559;29;20067;-60
2022/07/04 01:01:48;;;;;;;0.00;0.00;;;23.50;66.10;;;;;;4062796;29;20167;-61
2022/07/04 01:04:11;;;;;;;0.00;0.00;;;23.50;65.20;;;;;;4063364;29;20055;-60
2022/07/04 01:06:34;;;;;;;0.00;0.00;;;23.50;65.20;;;;;;4062963;29;20127;-61
2022/07/04 01:08:56;;;;;;;0.00;0.00;;;23.50;65.20;;;;;;4063523;29;20047;-60
2022/07/04 01:11:18;;;;;;;0.00;0.00;;;23.50;65.30;;;;;;4063244;29;20063;-60
2022/07/04 01:13:41;;;;;;;0.00;0.00;;;23.50;65.30;;;;;;4062910;29;20048;-60
2022/07/04 01:16:04;;;;;;;0.00;0.00;;;23.40;65.30;;;;;;4062894;29;20048;-60
2022/07/04 01:18:28;;;;;;;0.00;0.00;;;23.50;65.30;;;;;;4061859;29;20562;-60
2022/07/04 01:20:51;;;;;;;0.00;0.00;;;23.40;65.20;;;;;;4063361;29;20596;-60
2022/07/04 01:23:14;;;;;;;0.00;0.00;;;23.40;65.30;;;;;;4048624;29;20143;-60
2022/07/04 01:25:35;;;;;;;0.00;0.00;;;23.40;65.30;;;;;;4062877;29;20186;-61
2022/07/04 01:27:59;;;;;;;0.00;0.00;;;23.40;65.30;;;;;;4063187;29;20135;-60
2022/07/04 01:30:21;;;;;;;0.00;0.00;;;23.40;65.30;;;;;;4062911;29;20052;-61
2022/07/04 01:32:43;;;;;;;0.00;0.00;;;23.40;65.30;;;;;;4063204;29;20075;-60
2022/07/04 01:35:06;;;;;;;0.90;0.57;;;23.40;65.70;;;;;;4062106;29;20047;-61
2022/07/04 01:37:29;;;;;;;0.00;0.00;;;23.30;65.20;;;;;;4062939;29;20150;-60
2022/07/04 01:39:51;;;;;;;0.13;0.13;;;23.30;65.20;;;;;;4062874;29;20062;-60
2022/07/04 01:42:13;;;;;;;0.00;0.00;;;23.30;65.20;;;;;;4048521;29;20060;-60
2022/07/04 01:44:35;;;;;;;0.03;0.03;;;23.30;65.20;;;;;;4063143;29;20150;-61
2022/07/04 01:46:57;;;;;;;0.00;0.00;;;23.30;65.20;;;;;;4047437;29;20144;-61
2022/07/04 01:49:19;;;;;;;11.80;1.08;;;23.30;65.80;;;;;;4047140;29;20143;-60
2022/07/04 01:51:45;;;;;;;0.00;0.00;;;23.30;65.20;;;;;;4050399;29;20075;-60
2022/07/04 01:54:08;;;;;;;0.00;0.00;;;23.30;65.30;;;;;;4048776;29;20135;-60
2022/07/04 01:56:30;;;;;;;0.00;0.00;;;23.30;65.20;;;;;;4062912;29;20080;-60
2022/07/04 01:58:52;;;;;;;0.10;0.10;;;23.30;65.20;;;;;;4062395;29;20498;-60
2022/07/04 02:01:31;;;;;;;0.32;0.32;;;23.30;66.10;;;;;;4062586;29;20399;-60
2022/07/04 02:03:53;;;;;;;0.00;0.00;;;23.30;65.20;;;;;;4046978;29;20419;-60
2022/07/04 02:06:16;;;;;;;0.65;0.65;;;23.30;65.20;;;;;;4046642;29;20540;-60
2022/07/04 02:11:18;;;;;;;0.00;0.00;;;23.20;65.20;;;;;;4035427;29;20068;-60
2022/07/04 02:13:39;;;;;;;0.00;0.00;;;23.20;65.10;;;;;;4062161;29;20445;-60
2022/07/04 02:16:02;;;;;;;0.05;0.05;;;23.20;65.20;;;;;;4047142;29;20136;-60
2022/07/04 02:18:24;;;;;;;0.00;0.00;;;23.20;65.20;;;;;;4047084;29;20056;-60
2022/07/04 02:20:46;;;;;;;0.05;0.05;;;23.10;65.10;;;;;;4047257;29;20063;-60
2022/07/04 02:23:08;;;;;;;0.57;0.52;;;23.20;65.20;;;;;;4062234;29;20063;-61
2022/07/04 02:25:30;;;;;;;0.00;0.00;;;23.20;65.30;;;;;;4062637;29;20071;-61
2022/07/04 02:27:54;;;;;;;0.00;0.00;;;23.20;65.20;;;;;;4047787;29;20041;-61
2022/07/04 02:30:16;;;;;;;0.00;0.00;;;23.20;65.10;;;;;;4062688;29;20055;-60
2022/07/04 02:32:39;;;;;;;0.00;0.00;;;23.20;65.10;;;;;;4061974;29;20062;-60
2022/07/04 02:35:01;;;;;;;0.00;0.00;;;23.20;65.10;;;;;;4062340;29;20135;-60
2022/07/04 02:37:23;;;;;;;0.00;0.00;;;23.20;65.20;;;;;;4062357;29;20511;-61
2022/07/04 02:39:45;;;;;;;0.00;0.00;;;23.20;65.10;;;;;;4047041;29;20062;-60
2022/07/04 02:42:07;;;;;;;0.17;0.17;;;23.20;65.00;;;;;;4046329;29;20128;-61
2022/07/04 02:44:31;;;;;;;0.00;0.00;;;23.20;65.00;;;;;;4046839;29;20044;-60
2022/07/04 02:46:53;;;;;;;0.00;0.00;;;23.10;64.90;;;;;;4049058;29;20116;-61
2022/07/04 02:49:15;;;;;;;0.00;0.00;;;23.10;64.90;;;;;;4049899;29;20140;-60
2022/07/04 02:51:37;;;;;;;0.00;0.00;;;23.10;64.90;;;;;;4048466;29;20045;-61
2022/07/04 02:53:59;;;;;;;0.00;0.00;;;23.10;65.80;;;;;;4050034;29;20083;-60
2022/07/04 02:56:21;;;;;;;0.00;0.00;;;23.10;65.50;;;;;;4048883;29;20100;-61
2022/07/04 02:58:43;;;;;;;0.00;0.00;;;23.10;64.90;;;;;;4049539;29;20056;-61
2022/07/04 03:01:07;;;;;;;0.00;0.00;;;23.10;64.90;;;;;;4049509;29;20491;-60
2022/07/04 03:03:29;;;;;;;0.00;0.00;;;23.10;65.00;;;;;;4033913;29;20105;-61
2022/07/04 03:05:52;;;;;;;0.00;0.00;;;23.10;64.90;;;;;;4035269;29;20053;-60
2022/07/04 03:08:13;;;;;;;0.00;0.00;;;23.10;64.90;;;;;;4049465;29;20059;-61
2022/07/04 03:10:35;;;;;;;0.00;0.00;;;23.00;65.80;;;;;;4049822;29;20049;-60
2022/07/04 03:12:57;;;;;;;0.00;0.00;;;23.00;64.90;;;;;;4048778;29;20107;-61
2022/07/04 03:15:22;;;;;;;0.00;0.00;;;23.00;64.80;;;;;;4049481;29;20045;-60
2022/07/04 03:17:45;;;;;;;0.00;0.00;;;23.00;64.90;;;;;;4048643;29;20548;-61
2022/07/04 03:20:09;;;;;;;0.00;0.00;;;23.00;64.90;;;;;;4049237;29;20405;-61
2022/07/04 03:22:31;;;;;;;0.00;0.00;;;23.00;64.90;;;;;;4048347;29;20405;-61
2022/07/04 03:24:53;;;;;;;0.00;0.00;;;23.00;64.80;;;;;;4049509;29;20063;-61
2022/07/04 03:27:15;;;;;;;0.00;0.00;;;23.00;65.70;;;;;;4048623;29;20060;-61
2022/07/04 03:29:37;;;;;;;0.08;0.08;;;23.00;64.90;;;;;;4048528;29;20067;-61
2022/07/04 03:31:59;;;;;;;0.00;0.00;;;23.00;64.80;;;;;;4049050;29;20118;-61
2022/07/04 03:34:22;;;;;;;0.00;0.00;;;23.00;64.90;;;;;;4049091;29;20076;-61
2022/07/04 03:36:44;;;;;;;0.00;0.00;;;23.00;64.90;;;;;;4048679;29;20060;-61
2022/07/04 03:39:06;;;;;;;0.05;0.05;;;23.00;64.80;;;;;;4062220;29;20127;-60
2022/07/04 03:41:28;;;;;;;0.00;0.00;;;23.00;64.90;;;;;;4063732;29;20506;-62
2022/07/04 03:43:50;;;;;;;0.00;0.00;;;23.00;64.90;;;;;;4065428;29;20110;-61
2022/07/04 03:46:12;;;;;;;0.00;0.00;;;23.00;64.90;;;;;;4064389;29;20151;-61
2022/07/04 03:48:35;;;;;;;0.00;0.00;;;22.90;64.80;;;;;;4065129;29;20111;-60
2022/07/04 03:50:59;;;;;;;0.17;0.17;;;23.00;64.80;;;;;;4076847;29;20040;-61
2022/07/04 03:53:22;;;;;;;0.00;0.00;;;23.00;65.20;;;;;;4065019;29;20059;-60
2022/07/04 03:55:44;;;;;;;0.00;0.00;;;22.90;64.70;;;;;;4063978;29;20079;-61
2022/07/04 03:58:06;;;;;;;0.00;0.00;;;22.90;64.70;;;;;;4063345;29;20051;-60
2022/07/04 04:00:28;;;;;;;0.00;0.00;;;22.90;64.70;;;;;;4064928;29;20048;-60
2022/07/04 04:02:50;;;;;;;0.00;0.00;;;22.90;64.70;;;;;;4064434;29;20139;-61
2022/07/04 04:05:27;;;;;;;0.08;0.08;;;23.00;64.70;;;;;;4064316;29;20076;-60
2022/07/04 04:07:50;;;;;;;0.13;0.13;;;22.90;64.70;;;;;;4064471;29;20052;-60
2022/07/04 04:10:12;;;;;;;2.28;0.55;;;22.90;64.70;;;;;;4064132;29;20058;-61
2022/07/04 04:12:34;;;;;;;0.00;0.00;;;22.90;64.70;;;;;;4064501;29;20560;-60
2022/07/04 04:14:56;;;;;;;0.00;0.00;;;22.90;64.70;;;;;;4064057;29;20051;-61
2022/07/04 04:17:18;;;;;;;0.00;0.00;;;22.90;64.80;;;;;;4064475;29;20497;-60
2022/07/04 04:19:40;;;;;;;0.05;0.05;;;22.90;64.80;;;;;;4064029;29;20056;-61
2022/07/04 04:22:04;;;;;;;0.00;0.00;;;22.90;64.80;;;;;;4064538;29;20087;-60
2022/07/04 04:24:27;;;;;;;0.60;0.60;;;22.90;65.40;;;;;;4062166;29;20111;-61
2022/07/04 04:26:49;;;;;;;0.10;0.10;;;22.90;64.70;;;;;;4063528;29;20063;-60
2022/07/04 04:29:11;;;;;;;0.00;0.00;;;22.90;64.80;;;;;;4063782;29;20070;-61
2022/07/04 04:31:33;;;;;;;1.08;0.90;;;22.90;64.80;;;;;;4063939;29;20048;-60
2022/07/04 04:33:55;;;;;;;0.00;0.00;;;22.90;64.70;;;;;;4064065;29;20055;-61
2022/07/04 04:36:17;;;;;;;0.00;0.00;;;22.90;64.70;;;;;;4064516;29;20059;-60
2022/07/04 04:38:39;;;;;;;0.20;0.20;;;22.90;64.70;;;;;;4063486;29;20060;-60
2022/07/04 04:41:03;;;;;;;0.05;0.05;;;22.90;64.70;;;;;;4063331;29;20048;-60
2022/07/04 04:43:25;;;;;;;0.00;0.00;;;22.90;64.70;;;;;;4063597;29;20079;-60
2022/07/04 04:45:47;;;;;;;0.20;0.20;;;22.90;64.70;;;;;;4063082;29;20083;-60
2022/07/04 04:48:09;;;;;;;0.00;0.00;;;23.00;64.70;;;;;;4063160;29;20119;-61
2022/07/04 04:50:31;;;;;;;0.00;0.00;;;23.00;64.80;;;;;;4063325;29;20710;-58
2022/07/04 04:52:53;;;;;;;0.00;0.00;;;23.00;65.30;;;;;;4063818;29;20645;-61
2022/07/04 04:55:15;;;;;;;0.00;0.00;;;23.00;65.50;;;;;;4063878;29;20103;-60
2022/07/04 04:57:38;;;;;;;0.85;0.52;;;23.10;65.60;;;;;;4063264;29;20096;-61
2022/07/04 05:00:00;;;;;;;0.00;0.00;;;23.10;65.50;;;;;;4062810;29;20078;-60
2022/07/04 05:02:23;;;;;;;2.72;1.55;;;23.10;65.20;;;;;;4062900;29;20664;-60
2022/07/04 05:04:45;;;;;;;0.00;0.00;;;23.10;66.00;;;;;;4062843;29;20100;-60
2022/07/04 05:07:07;;;;;;;0.45;0.45;;;23.10;65.10;;;;;;4062722;29;20300;-60
2022/07/04 05:09:29;;;;;;;0.00;0.00;;;23.10;66.00;;;;;;4047973;29;20147;-60
2022/07/04 05:11:51;;;;;;;0.00;0.00;;;23.00;65.00;;;;;;4047987;29;20139;-60
2022/07/04 05:14:15;;;;;;;0.00;0.00;;;23.00;65.00;;;;;;4048627;29;20056;-60
2022/07/04 05:16:37;;;;;;;0.00;0.00;;;23.00;65.00;;;;;;4062463;29;20759;-60
2022/07/04 05:19:00;;;;;;;0.00;0.00;;;23.00;65.00;;;;;;4062189;29;20086;-60
2022/07/04 05:21:25;;;;;;;0.00;0.00;;;23.00;65.00;;;;;;4062455;29;20444;-64
2022/07/04 05:23:48;;;;;;;0.00;0.00;;;23.10;65.20;;;;;;4062674;29;20129;-64
2022/07/04 05:26:10;;;;;;;0.00;0.00;;;23.10;65.30;;;;;;4062822;29;20139;-64
2022/07/04 05:28:32;;;;;;;0.00;0.00;;;23.20;65.10;;;;;;4062396;29;20464;-65
2022/07/04 05:30:55;;;;;;;0.00;0.00;;;23.30;64.80;;;;;;4048040;29;20084;-64
2022/07/04 05:33:18;;;;;;;0.00;0.00;;;23.30;64.40;;;;;;4061490;29;20047;-65
2022/07/04 05:35:40;;;;;;;0.47;0.47;;;23.40;64.20;;;;;;4062199;29;20080;-65
2022/07/04 05:38:02;;;;;;;2.35;1.65;;;23.50;64.00;;;;;;4050076;29;20456;-65
2022/07/04 05:40:24;;;;;;;0.00;0.00;;;23.50;63.70;;;;;;4062166;29;20488;-65
2022/07/04 05:42:46;;;;;;;0.00;0.00;;;23.50;64.50;;;;;;4061821;29;20468;-65
2022/07/04 05:45:09;;;;;;;0.00;0.00;;;23.50;63.60;;;;;;4062238;29;20139;-65
2022/07/04 05:47:32;;;;;;;0.00;0.00;;;23.50;63.60;;;;;;4063174;29;20121;-67
2022/07/04 05:49:54;;;;;;;0.08;0.08;;;23.50;63.70;;;;;;4062741;29;20160;-65
2022/07/04 05:52:17;;;;;;;0.00;0.00;;;23.40;63.70;;;;;;4062977;29;20506;-65
2022/07/04 05:54:39;;;;;;;0.00;0.00;;;23.40;63.90;;;;;;4063034;29;20547;-65
2022/07/04 05:57:01;;;;;;;0.00;0.00;;;23.30;64.80;;;;;;4063144;29;20155;-65
2022/07/04 05:59:24;;;;;;;0.00;0.00;;;23.30;64.00;;;;;;4062941;29;20063;-65
2022/07/04 06:01:46;;;;;;;0.00;0.00;;;23.30;65.00;;;;;;4063099;29;20518;-66
2022/07/04 06:04:10;;;;;;;0.00;0.00;;;23.30;64.10;;;;;;4063146;29;20147;-66
2022/07/04 06:06:32;;;;;;;0.00;0.00;;;23.30;64.30;;;;;;4062927;29;20488;-65
2022/07/04 06:08:54;;;;;;;0.00;0.00;;;23.30;64.40;;;;;;4063287;29;20075;-66
2022/07/04 06:11:17;;;;;;;0.00;0.00;;;23.30;65.30;;;;;;4062601;29;20152;-65
2022/07/04 06:13:39;;;;;;;0.10;0.10;;;23.30;64.30;;;;;;4061747;29;20052;-65
2022/07/04 06:16:01;;;;;;;0.45;0.45;;;23.30;64.40;;;;;;4062845;29;20139;-65
2022/07/04 06:18:23;;;;;;;0.00;0.00;;;23.30;64.40;;;;;;4062808;29;20596;-65
2022/07/04 06:20:47;;;;;;;0.00;0.00;;;23.20;64.30;;;;;;4063778;29;20052;-65
2022/07/04 06:23:09;;;;;;;0.10;0.10;;;23.20;64.30;;;;;;4066184;29;20062;-65
2022/07/04 06:25:32;;;;;;;0.08;0.08;;;23.20;64.50;;;;;;4065905;29;20469;-64
2022/07/04 06:27:54;;;;;;;0.00;0.00;;;23.20;64.40;;;;;;4065061;29;20059;-65
2022/07/04 06:30:17;;;;;;;0.00;0.00;;;23.20;64.50;;;;;;4065796;29;20059;-64
2022/07/04 06:32:43;;;;;;;0.00;0.00;;;23.20;64.60;;;;;;4065912;29;20054;-65
2022/07/04 06:37:46;;;;;;;0.00;0.00;;;23.20;64.60;;;;;;4065759;29;20069;-65
2022/07/04 06:40:10;;;;;;;0.10;0.10;;;23.20;64.80;;;;;;4065145;29;20052;-64
2022/07/04 06:42:32;;;;;;;0.00;0.00;;;23.20;65.30;;;;;;4065706;29;20062;-65
2022/07/04 06:44:54;;;;;;;0.00;0.00;;;23.30;65.20;;;;;;4065049;29;20702;-64
2022/07/04 06:47:16;;;;;;;0.00;0.00;;;23.30;64.70;;;;;;4065247;29;20071;-65
2022/07/04 06:49:38;;;;;;;0.00;0.00;;;23.40;65.20;;;;;;4063962;29;20099;-64
2022/07/04 06:52:00;;;;;;;0.00;0.00;;;23.50;63.90;;;;;;4065448;29;20055;-65
2022/07/04 06:54:23;;;;;;;0.00;0.00;;;23.50;63.70;;;;;;4064853;29;20063;-64
2022/07/04 06:56:46;;;;;;;0.00;0.00;;;23.60;63.50;;;;;;4065536;29;20103;-65
2022/07/04 06:59:08;;;;;;;0.00;0.00;;;23.70;63.20;;;;;;4064730;29;20048;-64
2022/07/04 07:01:30;;;;;;;0.00;0.00;;;23.70;62.80;;;;;;4064822;29;20080;-65
2022/07/04 07:03:52;;;;;;;0.00;0.00;;;23.80;62.60;;;;;;4064637;29;20536;-65
2022/07/04 07:06:14;;;;;;;0.00;0.00;;;23.90;62.30;;;;;;4065255;29;20112;-64
2022/07/04 07:08:36;;;;;;;1.85;1.45;;;23.90;62.10;;;;;;4065502;29;20551;-67
2022/07/04 07:11:12;;;;;;;0.73;0.57;;;24.00;61.80;;;;;;4064593;29;20127;-65
2022/07/04 07:13:35;;;;;;;0.00;0.00;;;24.10;61.50;;;;;;4064875;29;20111;-65
2022/07/04 07:15:57;;;;;;;0.10;0.10;;;24.10;61.20;;;;;;4065091;29;20075;-65
2022/07/04 07:18:19;;;;;;;0.00;0.00;;;24.10;61.00;;;;;;4064759;29;20111;-65
2022/07/04 07:20:42;;;;;;;0.15;0.05;;;24.20;60.70;;;;;;4064255;29;20052;-65
2022/07/04 07:23:04;;;;;;;0.55;0.55;;;24.20;60.60;;;;;;4062379;29;20048;-64
2022/07/04 07:25:26;;;;;;;0.63;0.63;;;24.20;60.40;;;;;;4064841;29;20074;-65
2022/07/04 07:27:50;;;;;;;0.00;0.00;;;24.30;60.60;;;;;;4064731;29;20078;-64
2022/07/04 07:30:12;;;;;;;0.00;0.00;;;24.30;60.30;;;;;;4065005;29;20067;-65
2022/07/04 07:32:35;;;;;;;0.10;0.10;;;24.30;60.20;;;;;;4062920;29;20416;-65
2022/07/04 07:34:57;;;;;;;0.00;0.00;;;24.30;60.00;;;;;;4065046;29;20097;-65
2022/07/04 07:37:21;;;;;;;0.10;0.10;;;24.30;59.80;;;;;;4064566;29;20048;-64
2022/07/04 07:39:43;;;;;;;0.00;0.00;;;24.30;59.80;;;;;;4064221;29;20044;-64
2022/07/04 07:42:06;;;;;;;0.00;0.00;;;24.40;59.70;;;;;;4064569;29;20143;-65
2022/07/04 07:44:29;;;;;;;0.00;0.00;;;24.30;59.60;;;;;;4064783;29;20146;-65
2022/07/04 07:46:52;;;;;;;0.00;0.00;;;24.30;59.60;;;;;;4064184;29;20068;-64
2022/07/04 07:49:14;;;;;;;0.00;0.00;;;24.30;59.70;;;;;;4064109;29;20079;-65
2022/07/04 07:51:37;;;;;;;0.00;0.00;;;24.30;59.70;;;;;;4059134;29;20056;-65
2022/07/04 07:53:59;;;;;;;0.00;0.00;;;24.30;59.60;;;;;;4064407;29;20075;-65
2022/07/04 07:56:37;;;;;;;0.00;0.00;;;24.30;59.70;;;;;;4064341;29;20051;-65
2022/07/04 07:58:59;;;;;;;0.00;0.00;;;24.30;60.60;;;;;;4049644;29;20057;-65
2022/07/04 08:01:22;;;;;;;0.00;0.00;;;24.30;59.70;;;;;;4048618;29;20173;-64
2022/07/04 08:06:24;;;;;;;0.00;0.00;;;24.30;59.60;;;;;;4047572;29;20075;-65
2022/07/04 08:08:47;;;;;;;0.00;0.00;;;24.30;59.60;;;;;;4048192;29;20507;-65
2022/07/04 08:11:09;;;;;;;0.03;0.03;;;24.30;59.60;;;;;;4064171;29;20134;-65
2022/07/04 08:13:32;;;;;;;0.00;0.00;;;24.30;59.60;;;;;;4064330;29;20250;-66
2022/07/04 08:15:54;;;;;;;0.00;0.00;;;24.20;59.50;;;;;;4063851;29;20131;-65
2022/07/04 08:18:18;;;;;;;0.00;0.00;;;24.20;60.40;;;;;;4063291;29;20407;-65
2022/07/04 08:20:40;;;;;;;0.10;0.10;;;24.20;59.60;;;;;;4063170;29;20131;-65
2022/07/04 08:23:21;;;;;;;0.00;0.00;;;24.20;59.60;;;;;;4048338;29;20055;-67
2022/07/04 08:25:43;;;;;;;15.70;1.85;;;24.20;59.70;;;;;;4047970;29;20048;-65
2022/07/04 08:28:05;;;;;;;0.00;0.00;;;24.10;59.80;;;;;;4048371;29;20488;-65
2022/07/04 08:30:27;;;;;;;0.17;0.17;;;24.10;59.80;;;;;;4061076;29;20048;-64
2022/07/04 08:32:50;;;;;;;0.03;0.03;;;24.10;60.70;;;;;;4049548;29;20139;-60
2022/07/04 08:35:13;;;;;;;0.00;0.00;;;24.10;59.80;;;;;;4063722;29;20052;-61
2022/07/04 08:37:35;;;;;;;0.88;0.88;;;24.00;59.70;;;;;;4063914;29;20111;-65
2022/07/04 08:39:58;;;;;;;0.00;0.00;;;24.00;59.70;;;;;;4063051;29;20104;-60
2022/07/04 08:42:22;;;;;;;0.00;0.00;;;23.90;59.70;;;;;;4063666;29;20465;-59
2022/07/04 08:44:49;;;;;;;0.00;0.00;;;23.90;59.90;;;;;;4048687;29;20079;-60
2022/07/04 08:47:11;;;;;;;0.00;0.00;;;23.80;60.00;;;;;;4064160;29;20392;-59
2022/07/04 08:49:39;;;;;;;0.00;0.00;;;23.80;60.20;;;;;;4063409;29;20463;-65
2022/07/04 08:52:06;;;;;;;0.00;0.00;;;23.80;60.40;;;;;;4063731;29;20051;-60
2022/07/04 08:59:50;;;;;;;0.03;0.03;;;23.70;61.00;;;;;;4062613;29;20131;-59
2022/07/04 09:02:14;;;;;;;0.10;0.10;;;23.60;61.10;;;;;;4063180;29;20539;-64
2022/07/04 09:04:38;;;;;;;0.00;0.00;;;23.60;61.40;;;;;;4063443;29;20059;-65
2022/07/04 09:07:01;;;;;;;0.00;0.00;;;23.60;61.40;;;;;;4062048;29;20056;-64
2022/07/04 09:09:25;;;;;;;0.00;0.00;;;23.60;61.70;;;;;;4055018;29;20404;-65
2022/07/04 09:11:47;;;;;;;0.00;0.00;;;23.50;61.80;;;;;;4047630;29;20481;-65
2022/07/04 09:14:09;;;;;;;0.00;0.00;;;23.50;61.90;;;;;;4047901;29;20055;-65
2022/07/04 09:16:31;;;;;;;0.00;0.00;;;23.50;61.90;;;;;;4046990;29;20052;-64
2022/07/04 09:19:20;;;;;;;0.00;0.00;;;23.50;62.00;;;;;;4049318;29;20064;-65
2022/07/04 09:21:47;;;;;;;0.00;0.00;;;23.50;62.10;;;;;;4048287;29;20555;-60
2022/07/04 09:24:10;;;;;;;0.00;0.00;;;23.50;62.10;;;;;;4061668;29;20127;-60
2022/07/04 09:26:42;;;;;;;0.00;0.00;;;23.50;62.10;;;;;;4051460;29;20044;-61
2022/07/04 09:29:04;;;;;;;0.20;0.20;;;23.50;62.10;;;;;;4061332;29;20056;-64
2022/07/04 09:31:27;;;;;;;0.00;0.00;;;23.50;62.00;;;;;;4061315;29;20515;-65
2022/07/04 09:33:53;;;;;;;0.00;0.00;;;23.50;61.90;;;;;;4048214;29;20060;-65
2022/07/04 09:36:17;;;;;;;0.00;0.00;;;23.60;61.90;;;;;;4062477;29;20452;-65
2022/07/04 09:38:39;;;;;;;0.10;0.10;;;23.60;61.70;;;;;;4061320;29;20056;-65
2022/07/04 09:44:06;;;;;;;0.00;0.00;;;23.60;61.20;;;;;;4044535;29;20052;-60
2022/07/04 09:46:28;;;;;;;0.00;0.00;;;23.70;60.90;;;;;;4045044;29;20048;-60
2022/07/04 09:48:53;;;;;;;3.53;1.10;;;23.60;60.50;;;;;;4052564;29;20296;-59
2022/07/04 09:51:37;;;;;;;0.00;0.00;;;23.70;60.30;;;;;;4052908;29;20056;-65
2022/07/04 09:54:12;;;;;;;0.00;0.00;;;23.70;60.20;;;;;;4045183;29;20533;-67
2022/07/04 09:56:41;;;;;;;0.00;0.00;;;23.70;60.10;;;;;;4046159;29;20052;-64
2022/07/04 09:59:06;;;;;;;0.00;0.00;;;23.70;60.00;;;;;;4045727;29;20148;-60
2022/07/04 10:01:27;;;;;;;0.00;0.00;;;23.80;60.40;;;;;;4054945;29;20075;-60
2022/07/04 10:03:52;;;;;;;0.00;0.00;;;23.80;60.30;;;;;;4059938;29;20063;-61
2022/07/04 10:06:17;;;;;;;0.00;0.00;;;23.80;60.20;;;;;;4062467;29;20500;-60
2022/07/04 10:08:40;;;;;;;0.00;0.00;;;23.80;60.00;;;;;;4062804;29;20506;-60
2022/07/04 10:11:05;;;;;;;1.08;0.68;;;23.80;59.70;;;;;;4046070;29;20064;-61
2022/07/04 10:13:31;;;;;;;0.00;0.00;;;23.90;59.50;;;;;;4060370;29;20396;-60
2022/07/04 10:15:55;;;;;;;0.00;0.00;;;23.90;59.30;;;;;;4059918;29;20123;-61
2022/07/04 10:18:20;;;;;;;0.00;0.00;;;23.90;59.00;;;;;;4061262;29;20052;-60
2022/07/04 10:20:43;;;;;;;3.40;0.98;;;24.00;59.00;;;;;;4059805;29;20523;-60
2022/07/04 10:23:09;;;;;;;0.00;0.00;;;23.90;59.10;;;;;;4061064;29;20051;-60
2022/07/04 10:25:38;;;;;;;1.27;1.17;;;24.00;59.20;;;;;;4061128;29;20055;-60
2022/07/04 10:28:01;;;;;;;0.10;0.10;;;23.90;58.80;;;;;;4060998;29;20060;-63
2022/07/04 10:30:27;;;;;;;0.05;0.05;;;23.90;58.50;;;;;;4060459;29;20052;-63
2022/07/04 10:32:53;;;;;;;0.00;0.00;;;23.90;58.20;;;;;;4043840;29;20053;-64
2022/07/04 10:35:16;;;;;;;0.00;0.00;;;23.90;57.90;;;;;;4046917;29;20057;-64
2022/07/04 10:38:08;;;;;;;0.00;0.00;;;24.00;57.80;;;;;;4046393;29;20065;-64
2022/07/04 10:40:45;;;;;;;0.00;0.00;;;24.00;57.60;;;;;;4013141;29;20189;-60
2022/07/04 10:43:41;;;;;;;0.00;0.00;;;24.00;57.30;;;;;;4045086;29;20105;-64
2022/07/04 10:46:24;;;;;;;1.55;1.10;;;24.10;57.10;;;;;;4046262;29;20052;-64
2022/07/04 10:48:51;;;;;;;0.00;0.00;;;24.10;57.00;;;;;;4046766;29;20048;-64
2022/07/04 10:51:15;;;;;;;0.00;0.00;;;24.10;56.90;;;;;;4057071;29;20500;-64
2022/07/04 10:53:59;;;;;;;0.13;0.13;;;24.10;56.70;;;;;;4062140;29;20099;-64
2022/07/04 10:56:40;;;;;;;0.00;0.00;;;24.10;56.40;;;;;;4061069;29;20070;-65
2022/07/04 10:59:14;;;;;;;0.00;0.00;;;24.10;56.40;;;;;;4061746;29;20083;-65
2022/07/04 11:01:39;;;;;;;0.00;0.00;;;24.10;56.40;;;;;;4046576;29;20040;-65
2022/07/04 11:04:02;;;;;;;0.00;0.00;;;24.10;57.00;;;;;;4046004;29;20078;-60
2022/07/04 11:06:54;;;;;;;0.00;0.00;;;24.10;56.20;;;;;;4046915;29;20104;-64
2022/07/04 11:09:16;;;;;;;0.10;0.10;;;24.10;56.20;;;;;;4055637;29;20059;-65
2022/07/04 11:11:55;;;;;;;0.10;0.10;;;24.10;56.30;;;;;;4048434;29;20207;-65
2022/07/04 11:14:38;;;;;;;0.00;0.00;;;24.10;56.30;;;;;;4050560;29;20135;-65
2022/07/04 11:17:00;;;;;;;0.00;0.00;;;24.10;56.20;;;;;;4055464;29;20059;-60
2022/07/04 11:19:24;;;;;;;0.00;0.00;;;24.10;56.20;;;;;;4062232;29;20090;-60
2022/07/04 11:21:50;;;;;;;0.00;0.00;;;24.10;56.20;;;;;;4049572;29;20112;-60
2022/07/04 11:24:12;;;;;;;0.00;0.00;;;24.10;56.20;;;;;;4057284;29;20099;-66
2022/07/04 11:26:37;;;;;;;0.00;0.00;;;24.10;56.10;;;;;;4054838;29;20080;-60
2022/07/04 11:28:59;;;;;;;0.20;0.20;;;24.10;56.00;;;;;;4065200;29;20052;-60
2022/07/04 11:31:35;;;;;;;0.00;0.00;;;24.10;56.00;;;;;;4064980;29;20571;-60
2022/07/04 11:33:57;;;;;;;0.00;0.00;;;24.10;55.80;;;;;;4063931;29;20102;-60
2022/07/04 11:36:21;;;;;;;0.00;0.00;;;24.10;55.60;;;;;;4049577;29;20061;-65
2022/07/04 11:38:45;;;;;;;0.00;0.00;;;24.10;55.50;;;;;;4054263;29;20067;-64
2022/07/04 11:46:26;;;;;;;0.00;0.00;;;24.10;55.20;;;;;;4054604;29;20055;-64
2022/07/04 11:48:49;;;;;;;0.00;0.00;;;24.10;55.10;;;;;;4064278;29;20412;-64
2022/07/04 11:51:18;;;;;;;0.47;0.47;;;24.10;55.80;;;;;;4065216;29;20142;-66
2022/07/04 11:53:41;;;;;;;0.00;0.00;;;24.20;55.90;;;;;;4064005;29;20055;-67
2022/07/04 11:56:04;;;;;;;0.00;0.00;;;24.20;55.00;;;;;;4064539;29;20164;-66
2022/07/04 11:58:39;;;;;;;0.00;0.00;;;24.20;55.00;;;;;;4063327;29;20060;-66
2022/07/04 12:01:01;;;;;;;0.00;0.00;;;24.20;54.90;;;;;;4060040;29;20199;-66
2022/07/04 12:03:26;;;;;;;0.00;0.00;;;24.20;54.70;;;;;;4063936;29;20107;-67
2022/07/04 12:06:01;;;;;;;0.00;0.00;;;24.20;54.50;;;;;;4063546;29;20115;-67
2022/07/04 12:08:23;;;;;;;0.00;0.00;;;24.20;54.40;;;;;;4049327;29;20255;-67
2022/07/04 12:10:48;;;;;;;0.00;0.00;;;24.20;54.20;;;;;;4064012;29;20461;-67
2022/07/04 12:13:17;;;;;;;0.00;0.00;;;24.20;54.10;;;;;;4063723;29;20611;-67
2022/07/04 12:15:41;;;;;;;0.10;0.10;;;24.20;53.90;;;;;;4062266;29;20058;-67
2022/07/04 12:18:05;;;;;;;0.00;0.00;;;24.20;53.80;;;;;;4063204;29;20052;-67
2022/07/04 12:20:29;;;;;;;0.00;0.00;;;24.20;53.70;;;;;;4063283;29;20044;-66
2022/07/04 12:22:53;;;;;;;0.00;0.00;;;24.20;53.70;;;;;;4063992;29;20456;-66
2022/07/04 12:25:23;;;;;;;0.00;0.00;;;24.20;53.70;;;;;;4063424;29;20119;-66
2022/07/04 12:27:53;;;;;;;0.00;0.00;;;24.30;53.70;;;;;;4064104;29;20048;-66
2022/07/04 12:30:17;;;;;;;0.00;0.00;;;24.30;53.70;;;;;;4062131;29;20056;-64
2022/07/04 12:32:47;;;;;;;0.00;0.00;;;24.30;53.70;;;;;;4064188;29;20056;-66
2022/07/04 12:35:09;;;;;;;0.00;0.00;;;24.30;54.10;;;;;;4064004;29;20444;-65
2022/07/04 12:37:32;;;;;;;0.00;0.00;;;24.30;54.50;;;;;;4062757;29;20056;-67
2022/07/04 12:39:54;;;;;;;0.00;0.00;;;24.30;54.40;;;;;;4064365;29;20399;-65
2022/07/04 12:42:20;;;;;;;0.00;0.00;;;24.30;54.20;;;;;;4063818;29;20467;-65
2022/07/04 12:44:45;;;;;;;0.00;0.00;;;24.30;54.00;;;;;;4063321;29;20086;-60
2022/07/04 12:47:08;;;;;;;0.20;0.20;;;24.30;53.70;;;;;;4063266;29;20087;-60
2022/07/04 12:49:37;;;;;;;0.00;0.00;;;24.40;53.80;;;;;;4062682;29;20128;-60
2022/07/04 12:52:10;;;;;;;0.00;0.00;;;24.40;53.70;;;;;;4064043;29;20098;-60